sensor_id;sensor_type;location;lat;lon;timestamp;P1;durP1;ratioP1;P2;durP2;ratioP2
41333;SDS011;27078;46.428;6.256;2024-02-16T00:00:00;5.53;;;2.60;;
41333;SDS011;27078;46.428;6.256;2024-02-16T00:02:26;4.78;;;2.90;;
41333;SDS011;27078;46.428;6.256;2024-02-16T00:04:51;5.35;;;2.97;;
41333;SDS011;27078;46.428;6.256;2024-02-16T00:07:17;6.97;;;3.20;;
41333;SDS011;27078;46.428;6.256;2024-02-16T00:09:42;6.07;;;2.70;;
41333;SDS011;27078;46.428;6.256;2024-02-16T00:12:07;5.47;;;2.78;;
41333;SDS011;27078;46.428;6.256;2024-02-16T00:14:33;3.90;;;2.70;;
41333;SDS011;27078;46.428;6.256;2024-02-16T00:17:00;5.97;;;2.85;;
41333;SDS011;27078;46.428;6.256;2024-02-16T00:19:25;4.57;;;2.70;;
41333;SDS011;27078;46.428;6.256;2024-02-16T00:21:51;6.88;;;2.90;;
41333;SDS011;27078;46.428;6.256;2024-02-16T00:24:17;6.63;;;2.85;;
41333;SDS011;27078;46.428;6.256;2024-02-16T00:26:42;5.47;;;2.80;;
41333;SDS011;27078;46.428;6.256;2024-02-16T00:29:10;6.47;;;2.95;;
41333;SDS011;27078;46.428;6.256;2024-02-16T00:31:36;4.80;;;2.78;;
41333;SDS011;27078;46.428;6.256;2024-02-16T00:34:01;6.18;;;3.00;;
41333;SDS011;27078;46.428;6.256;2024-02-16T00:36:26;8.15;;;4.28;;
41333;SDS011;27078;46.428;6.256;2024-02-16T00:38:52;10.15;;;5.63;;
41333;SDS011;27078;46.428;6.256;2024-02-16T00:41:21;10.32;;;6.03;;
41333;SDS011;27078;46.428;6.256;2024-02-16T00:43:48;14.85;;;6.65;;
41333;SDS011;27078;46.428;6.256;2024-02-16T00:46:13;10.75;;;6.53;;
41333;SDS011;27078;46.428;6.256;2024-02-16T00:48:39;7.50;;;4.50;;
41333;SDS011;27078;46.428;6.256;2024-02-16T00:51:04;8.60;;;5.10;;
41333;SDS011;27078;46.428;6.256;2024-02-16T00:53:29;12.35;;;6.10;;
41333;SDS011;27078;46.428;6.256;2024-02-16T00:55:55;10.13;;;4.97;;
41333;SDS011;27078;46.428;6.256;2024-02-16T00:58:20;8.27;;;4.50;;
41333;SDS011;27078;46.428;6.256;2024-02-16T01:00:46;8.60;;;3.97;;
41333;SDS011;27078;46.428;6.256;2024-02-16T01:03:11;7.50;;;3.42;;
41333;SDS011;27078;46.428;6.256;2024-02-16T01:05:40;6.88;;;2.88;;
41333;SDS011;27078;46.428;6.256;2024-02-16T01:08:06;5.30;;;3.05;;
41333;SDS011;27078;46.428;6.256;2024-02-16T01:10:31;6.03;;;2.85;;
41333;SDS011;27078;46.428;6.256;2024-02-16T01:12:57;5.70;;;2.85;;
41333;SDS011;27078;46.428;6.256;2024-02-16T01:15:22;5.25;;;2.90;;
41333;SDS011;27078;46.428;6.256;2024-02-16T01:17:48;5.93;;;3.20;;
41333;SDS011;27078;46.428;6.256;2024-02-16T01:20:13;8.07;;;3.40;;
41333;SDS011;27078;46.428;6.256;2024-02-16T01:22:39;5.70;;;2.95;;
41333;SDS011;27078;46.428;6.256;2024-02-16T01:25:05;5.53;;;2.95;;
41333;SDS011;27078;46.428;6.256;2024-02-16T01:27:30;5.75;;;2.70;;
41333;SDS011;27078;46.428;6.256;2024-02-16T01:29:57;6.18;;;2.85;;
41333;SDS011;27078;46.428;6.256;2024-02-16T01:32:22;7.18;;;2.83;;
41333;SDS011;27078;46.428;6.256;2024-02-16T01:34:47;5.55;;;3.10;;
41333;SDS011;27078;46.428;6.256;2024-02-16T01:37:14;5.57;;;2.70;;
41333;SDS011;27078;46.428;6.256;2024-02-16T01:39:40;8.30;;;3.30;;
41333;SDS011;27078;46.428;6.256;2024-02-16T01:42:05;7.72;;;2.90;;
41333;SDS011;27078;46.428;6.256;2024-02-16T01:44:31;7.70;;;3.67;;
41333;SDS011;27078;46.428;6.256;2024-02-16T01:46:56;6.68;;;3.22;;
41333;SDS011;27078;46.428;6.256;2024-02-16T01:49:22;5.15;;;2.88;;
41333;SDS011;27078;46.428;6.256;2024-02-16T01:51:47;6.60;;;2.83;;
41333;SDS011;27078;46.428;6.256;2024-02-16T01:54:13;7.07;;;2.70;;
41333;SDS011;27078;46.428;6.256;2024-02-16T01:56:42;6.57;;;3.45;;
41333;SDS011;27078;46.428;6.256;2024-02-16T01:59:08;6.35;;;3.85;;
41333;SDS011;27078;46.428;6.256;2024-02-16T02:01:34;9.07;;;4.20;;
41333;SDS011;27078;46.428;6.256;2024-02-16T02:04:00;9.68;;;4.32;;
41333;SDS011;27078;46.428;6.256;2024-02-16T02:06:25;7.05;;;4.80;;
41333;SDS011;27078;46.428;6.256;2024-02-16T02:08:51;8.48;;;4.30;;
41333;SDS011;27078;46.428;6.256;2024-02-16T02:11:16;7.70;;;3.92;;
41333;SDS011;27078;46.428;6.256;2024-02-16T02:13:42;8.85;;;3.97;;
41333;SDS011;27078;46.428;6.256;2024-02-16T02:16:07;5.50;;;3.45;;
41333;SDS011;27078;46.428;6.256;2024-02-16T02:18:34;7.38;;;3.60;;
41333;SDS011;27078;46.428;6.256;2024-02-16T02:21:00;5.80;;;3.50;;
41333;SDS011;27078;46.428;6.256;2024-02-16T02:23:25;6.68;;;3.45;;
41333;SDS011;27078;46.428;6.256;2024-02-16T02:25:50;6.90;;;3.38;;
41333;SDS011;27078;46.428;6.256;2024-02-16T02:28:16;7.57;;;3.88;;
41333;SDS011;27078;46.428;6.256;2024-02-16T02:30:41;8.38;;;4.00;;
41333;SDS011;27078;46.428;6.256;2024-02-16T02:33:10;9.40;;;4.10;;
41333;SDS011;27078;46.428;6.256;2024-02-16T02:35:37;8.23;;;4.78;;
41333;SDS011;27078;46.428;6.256;2024-02-16T02:38:03;8.07;;;5.05;;
41333;SDS011;27078;46.428;6.256;2024-02-16T02:40:29;7.57;;;4.70;;
41333;SDS011;27078;46.428;6.256;2024-02-16T02:42:55;7.53;;;4.28;;
41333;SDS011;27078;46.428;6.256;2024-02-16T02:45:20;9.30;;;4.85;;
41333;SDS011;27078;46.428;6.256;2024-02-16T02:47:45;7.90;;;4.80;;
41333;SDS011;27078;46.428;6.256;2024-02-16T02:50:11;9.10;;;5.22;;
41333;SDS011;27078;46.428;6.256;2024-02-16T02:52:37;10.10;;;5.28;;
41333;SDS011;27078;46.428;6.256;2024-02-16T02:55:02;8.90;;;5.38;;
41333;SDS011;27078;46.428;6.256;2024-02-16T02:57:28;8.98;;;5.40;;
41333;SDS011;27078;46.428;6.256;2024-02-16T02:59:53;9.45;;;5.15;;
41333;SDS011;27078;46.428;6.256;2024-02-16T03:02:27;7.13;;;4.85;;
41333;SDS011;27078;46.428;6.256;2024-02-16T03:04:52;10.07;;;5.05;;
41333;SDS011;27078;46.428;6.256;2024-02-16T03:07:17;8.52;;;4.72;;
41333;SDS011;27078;46.428;6.256;2024-02-16T03:09:43;8.32;;;4.68;;
41333;SDS011;27078;46.428;6.256;2024-02-16T03:12:08;9.93;;;4.70;;
41333;SDS011;27078;46.428;6.256;2024-02-16T03:14:34;8.80;;;4.55;;
41333;SDS011;27078;46.428;6.256;2024-02-16T03:16:59;8.70;;;4.03;;
41333;SDS011;27078;46.428;6.256;2024-02-16T03:19:24;4.95;;;3.60;;
41333;SDS011;27078;46.428;6.256;2024-02-16T03:21:49;8.68;;;4.32;;
41333;SDS011;27078;46.428;6.256;2024-02-16T03:24:15;9.00;;;4.60;;
41333;SDS011;27078;46.428;6.256;2024-02-16T03:26:40;6.13;;;4.40;;
41333;SDS011;27078;46.428;6.256;2024-02-16T03:29:06;8.68;;;4.55;;
41333;SDS011;27078;46.428;6.256;2024-02-16T03:31:31;8.05;;;4.75;;
41333;SDS011;27078;46.428;6.256;2024-02-16T03:33:58;9.05;;;4.70;;
41333;SDS011;27078;46.428;6.256;2024-02-16T03:36:24;6.95;;;4.50;;
41333;SDS011;27078;46.428;6.256;2024-02-16T03:38:49;7.63;;;4.00;;
41333;SDS011;27078;46.428;6.256;2024-02-16T03:41:18;6.00;;;3.90;;
41333;SDS011;27078;46.428;6.256;2024-02-16T03:43:45;6.82;;;4.10;;
41333;SDS011;27078;46.428;6.256;2024-02-16T03:46:10;7.97;;;4.40;;
41333;SDS011;27078;46.428;6.256;2024-02-16T03:48:36;7.10;;;4.22;;
41333;SDS011;27078;46.428;6.256;2024-02-16T03:51:01;7.55;;;4.38;;
41333;SDS011;27078;46.428;6.256;2024-02-16T03:53:29;8.55;;;4.60;;
41333;SDS011;27078;46.428;6.256;2024-02-16T03:55:54;6.93;;;3.70;;
41333;SDS011;27078;46.428;6.256;2024-02-16T03:58:20;8.30;;;3.60;;
41333;SDS011;27078;46.428;6.256;2024-02-16T04:00:46;8.63;;;4.57;;
41333;SDS011;27078;46.428;6.256;2024-02-16T04:03:13;8.88;;;5.00;;
41333;SDS011;27078;46.428;6.256;2024-02-16T04:05:39;7.70;;;4.55;;
41333;SDS011;27078;46.428;6.256;2024-02-16T04:08:06;10.45;;;7.15;;
41333;SDS011;27078;46.428;6.256;2024-02-16T04:10:33;10.48;;;7.20;;
41333;SDS011;27078;46.428;6.256;2024-02-16T04:13:01;12.35;;;7.70;;
41333;SDS011;27078;46.428;6.256;2024-02-16T04:15:27;12.30;;;7.82;;
41333;SDS011;27078;46.428;6.256;2024-02-16T04:17:52;13.80;;;8.23;;
41333;SDS011;27078;46.428;6.256;2024-02-16T04:20:18;12.77;;;7.70;;
41333;SDS011;27078;46.428;6.256;2024-02-16T04:22:44;13.77;;;8.45;;
41333;SDS011;27078;46.428;6.256;2024-02-16T04:25:10;14.68;;;8.35;;
41333;SDS011;27078;46.428;6.256;2024-02-16T04:27:36;11.00;;;7.68;;
41333;SDS011;27078;46.428;6.256;2024-02-16T04:30:02;12.57;;;8.43;;
41333;SDS011;27078;46.428;6.256;2024-02-16T04:32:37;12.38;;;8.20;;
41333;SDS011;27078;46.428;6.256;2024-02-16T04:35:06;13.43;;;7.82;;
41333;SDS011;27078;46.428;6.256;2024-02-16T04:37:36;12.25;;;7.50;;
41333;SDS011;27078;46.428;6.256;2024-02-16T04:40:02;13.98;;;8.13;;
41333;SDS011;27078;46.428;6.256;2024-02-16T04:42:29;15.02;;;8.50;;
41333;SDS011;27078;46.428;6.256;2024-02-16T04:44:54;13.43;;;7.90;;
41333;SDS011;27078;46.428;6.256;2024-02-16T04:47:20;12.07;;;8.18;;
41333;SDS011;27078;46.428;6.256;2024-02-16T04:49:45;12.35;;;7.55;;
41333;SDS011;27078;46.428;6.256;2024-02-16T04:52:10;12.88;;;7.80;;
41333;SDS011;27078;46.428;6.256;2024-02-16T04:54:36;12.38;;;8.00;;
41333;SDS011;27078;46.428;6.256;2024-02-16T04:57:01;14.20;;;8.57;;
41333;SDS011;27078;46.428;6.256;2024-02-16T04:59:27;12.77;;;8.35;;
41333;SDS011;27078;46.428;6.256;2024-02-16T05:01:52;15.48;;;8.52;;
41333;SDS011;27078;46.428;6.256;2024-02-16T05:04:18;12.57;;;8.15;;
41333;SDS011;27078;46.428;6.256;2024-02-16T05:06:44;14.55;;;8.85;;
41333;SDS011;27078;46.428;6.256;2024-02-16T05:09:11;15.68;;;8.90;;
41333;SDS011;27078;46.428;6.256;2024-02-16T05:11:37;15.45;;;9.10;;
41333;SDS011;27078;46.428;6.256;2024-02-16T05:14:02;13.48;;;8.70;;
41333;SDS011;27078;46.428;6.256;2024-02-16T05:16:28;15.30;;;8.95;;
41333;SDS011;27078;46.428;6.256;2024-02-16T05:18:55;14.80;;;9.40;;
41333;SDS011;27078;46.428;6.256;2024-02-16T05:21:21;14.40;;;9.43;;
41333;SDS011;27078;46.428;6.256;2024-02-16T05:23:47;15.07;;;9.15;;
41333;SDS011;27078;46.428;6.256;2024-02-16T05:26:13;14.70;;;9.07;;
41333;SDS011;27078;46.428;6.256;2024-02-16T05:28:38;14.43;;;9.18;;
41333;SDS011;27078;46.428;6.256;2024-02-16T05:31:12;13.68;;;8.65;;
41333;SDS011;27078;46.428;6.256;2024-02-16T05:33:48;14.20;;;9.20;;
41333;SDS011;27078;46.428;6.256;2024-02-16T05:36:21;15.15;;;9.30;;
41333;SDS011;27078;46.428;6.256;2024-02-16T05:38:49;17.67;;;9.35;;
41333;SDS011;27078;46.428;6.256;2024-02-16T05:41:16;15.35;;;9.27;;
41333;SDS011;27078;46.428;6.256;2024-02-16T05:43:45;14.15;;;9.32;;
41333;SDS011;27078;46.428;6.256;2024-02-16T05:46:13;15.15;;;10.00;;
41333;SDS011;27078;46.428;6.256;2024-02-16T05:48:39;16.73;;;10.07;;
41333;SDS011;27078;46.428;6.256;2024-02-16T05:51:05;14.32;;;9.32;;
41333;SDS011;27078;46.428;6.256;2024-02-16T05:53:32;15.27;;;9.60;;
41333;SDS011;27078;46.428;6.256;2024-02-16T05:55:58;15.88;;;9.88;;
41333;SDS011;27078;46.428;6.256;2024-02-16T05:58:24;13.77;;;9.40;;
41333;SDS011;27078;46.428;6.256;2024-02-16T06:00:49;15.70;;;9.98;;
41333;SDS011;27078;46.428;6.256;2024-02-16T06:03:14;14.48;;;10.15;;
41333;SDS011;27078;46.428;6.256;2024-02-16T06:05:40;15.38;;;9.20;;
41333;SDS011;27078;46.428;6.256;2024-02-16T06:08:06;16.08;;;10.13;;
41333;SDS011;27078;46.428;6.256;2024-02-16T06:10:32;16.70;;;10.05;;
41333;SDS011;27078;46.428;6.256;2024-02-16T06:12:58;15.25;;;10.32;;
41333;SDS011;27078;46.428;6.256;2024-02-16T06:15:24;16.10;;;10.95;;
41333;SDS011;27078;46.428;6.256;2024-02-16T06:17:50;19.83;;;11.07;;
41333;SDS011;27078;46.428;6.256;2024-02-16T06:20:15;15.10;;;10.35;;
41333;SDS011;27078;46.428;6.256;2024-02-16T06:22:41;17.48;;;11.05;;
41333;SDS011;27078;46.428;6.256;2024-02-16T06:25:07;17.25;;;11.38;;
41333;SDS011;27078;46.428;6.256;2024-02-16T06:27:33;17.30;;;11.43;;
41333;SDS011;27078;46.428;6.256;2024-02-16T06:29:58;18.50;;;11.73;;
41333;SDS011;27078;46.428;6.256;2024-02-16T06:32:24;19.08;;;11.88;;
41333;SDS011;27078;46.428;6.256;2024-02-16T06:34:49;17.13;;;11.55;;
41333;SDS011;27078;46.428;6.256;2024-02-16T06:37:15;19.38;;;12.38;;
41333;SDS011;27078;46.428;6.256;2024-02-16T06:39:40;16.67;;;12.05;;
41333;SDS011;27078;46.428;6.256;2024-02-16T06:42:05;18.30;;;12.13;;
41333;SDS011;27078;46.428;6.256;2024-02-16T06:44:31;24.00;;;12.50;;
41333;SDS011;27078;46.428;6.256;2024-02-16T06:46:56;20.67;;;12.77;;
41333;SDS011;27078;46.428;6.256;2024-02-16T06:49:22;18.75;;;12.27;;
41333;SDS011;27078;46.428;6.256;2024-02-16T06:51:47;17.15;;;11.68;;
41333;SDS011;27078;46.428;6.256;2024-02-16T06:54:12;17.83;;;12.05;;
41333;SDS011;27078;46.428;6.256;2024-02-16T06:56:39;18.52;;;12.52;;
41333;SDS011;27078;46.428;6.256;2024-02-16T06:59:05;18.55;;;12.40;;
41333;SDS011;27078;46.428;6.256;2024-02-16T07:01:30;18.38;;;12.43;;
41333;SDS011;27078;46.428;6.256;2024-02-16T07:03:55;18.60;;;12.30;;
41333;SDS011;27078;46.428;6.256;2024-02-16T07:06:21;22.85;;;12.63;;
41333;SDS011;27078;46.428;6.256;2024-02-16T07:08:46;20.25;;;11.40;;
41333;SDS011;27078;46.428;6.256;2024-02-16T07:11:11;19.63;;;12.60;;
41333;SDS011;27078;46.428;6.256;2024-02-16T07:13:38;18.80;;;12.18;;
41333;SDS011;27078;46.428;6.256;2024-02-16T07:16:04;18.73;;;12.15;;
41333;SDS011;27078;46.428;6.256;2024-02-16T07:18:31;20.50;;;12.48;;
41333;SDS011;27078;46.428;6.256;2024-02-16T07:21:00;20.10;;;12.50;;
41333;SDS011;27078;46.428;6.256;2024-02-16T07:23:26;17.77;;;12.02;;
41333;SDS011;27078;46.428;6.256;2024-02-16T07:25:51;21.55;;;12.48;;
41333;SDS011;27078;46.428;6.256;2024-02-16T07:28:21;17.98;;;12.43;;
41333;SDS011;27078;46.428;6.256;2024-02-16T07:30:46;18.85;;;12.38;;
41333;SDS011;27078;46.428;6.256;2024-02-16T07:33:12;21.90;;;12.43;;
41333;SDS011;27078;46.428;6.256;2024-02-16T07:35:37;23.35;;;12.25;;
41333;SDS011;27078;46.428;6.256;2024-02-16T07:38:05;20.63;;;12.57;;
41333;SDS011;27078;46.428;6.256;2024-02-16T07:40:31;20.08;;;12.38;;
41333;SDS011;27078;46.428;6.256;2024-02-16T07:42:56;19.13;;;12.00;;
41333;SDS011;27078;46.428;6.256;2024-02-16T07:45:22;21.65;;;12.50;;
41333;SDS011;27078;46.428;6.256;2024-02-16T07:47:48;21.90;;;11.82;;
41333;SDS011;27078;46.428;6.256;2024-02-16T07:50:13;17.42;;;11.02;;
41333;SDS011;27078;46.428;6.256;2024-02-16T07:52:42;18.75;;;11.30;;
41333;SDS011;27078;46.428;6.256;2024-02-16T07:55:08;19.75;;;11.88;;
41333;SDS011;27078;46.428;6.256;2024-02-16T07:57:34;18.55;;;11.23;;
41333;SDS011;27078;46.428;6.256;2024-02-16T08:00:00;18.63;;;11.93;;
41333;SDS011;27078;46.428;6.256;2024-02-16T08:02:25;17.58;;;11.68;;
41333;SDS011;27078;46.428;6.256;2024-02-16T08:04:51;17.15;;;11.70;;
41333;SDS011;27078;46.428;6.256;2024-02-16T08:07:17;17.50;;;11.32;;
41333;SDS011;27078;46.428;6.256;2024-02-16T08:09:45;19.25;;;11.82;;
41333;SDS011;27078;46.428;6.256;2024-02-16T08:12:11;18.15;;;11.43;;
41333;SDS011;27078;46.428;6.256;2024-02-16T08:14:38;17.35;;;11.38;;
41333;SDS011;27078;46.428;6.256;2024-02-16T08:17:06;18.52;;;11.60;;
41333;SDS011;27078;46.428;6.256;2024-02-16T08:19:33;18.27;;;11.30;;
41333;SDS011;27078;46.428;6.256;2024-02-16T08:22:00;16.85;;;10.88;;
41333;SDS011;27078;46.428;6.256;2024-02-16T08:24:26;17.85;;;11.32;;
41333;SDS011;27078;46.428;6.256;2024-02-16T08:26:51;16.88;;;11.15;;
41333;SDS011;27078;46.428;6.256;2024-02-16T08:29:17;16.30;;;10.45;;
41333;SDS011;27078;46.428;6.256;2024-02-16T08:31:42;15.60;;;9.50;;
41333;SDS011;27078;46.428;6.256;2024-02-16T08:34:09;14.95;;;9.95;;
41333;SDS011;27078;46.428;6.256;2024-02-16T08:36:35;19.08;;;10.75;;
41333;SDS011;27078;46.428;6.256;2024-02-16T08:39:03;18.67;;;10.60;;
41333;SDS011;27078;46.428;6.256;2024-02-16T08:41:28;16.25;;;9.70;;
41333;SDS011;27078;46.428;6.256;2024-02-16T08:43:53;15.18;;;10.23;;
41333;SDS011;27078;46.428;6.256;2024-02-16T08:46:20;16.05;;;10.63;;
41333;SDS011;27078;46.428;6.256;2024-02-16T08:48:46;16.75;;;10.30;;
41333;SDS011;27078;46.428;6.256;2024-02-16T08:51:12;13.93;;;10.50;;
41333;SDS011;27078;46.428;6.256;2024-02-16T08:53:38;17.30;;;10.18;;
41333;SDS011;27078;46.428;6.256;2024-02-16T08:56:08;13.73;;;9.60;;
41333;SDS011;27078;46.428;6.256;2024-02-16T08:58:35;17.15;;;10.48;;
41333;SDS011;27078;46.428;6.256;2024-02-16T09:01:00;16.42;;;9.13;;
41333;SDS011;27078;46.428;6.256;2024-02-16T09:03:26;16.88;;;10.13;;
41333;SDS011;27078;46.428;6.256;2024-02-16T09:05:52;18.35;;;10.13;;
41333;SDS011;27078;46.428;6.256;2024-02-16T09:08:17;17.65;;;10.65;;
41333;SDS011;27078;46.428;6.256;2024-02-16T09:10:42;14.43;;;9.43;;
41333;SDS011;27078;46.428;6.256;2024-02-16T09:13:08;15.75;;;9.63;;
41333;SDS011;27078;46.428;6.256;2024-02-16T09:15:34;19.15;;;10.00;;
41333;SDS011;27078;46.428;6.256;2024-02-16T09:17:59;14.88;;;9.63;;
41333;SDS011;27078;46.428;6.256;2024-02-16T09:20:25;15.05;;;9.80;;
41333;SDS011;27078;46.428;6.256;2024-02-16T09:22:50;16.17;;;9.93;;
41333;SDS011;27078;46.428;6.256;2024-02-16T09:25:16;15.57;;;10.27;;
41333;SDS011;27078;46.428;6.256;2024-02-16T09:27:41;15.40;;;10.13;;
41333;SDS011;27078;46.428;6.256;2024-02-16T09:30:10;14.07;;;8.93;;
41333;SDS011;27078;46.428;6.256;2024-02-16T09:32:39;13.40;;;7.80;;
41333;SDS011;27078;46.428;6.256;2024-02-16T09:35:05;13.25;;;7.93;;
41333;SDS011;27078;46.428;6.256;2024-02-16T09:37:30;9.23;;;6.40;;
41333;SDS011;27078;46.428;6.256;2024-02-16T09:39:56;12.73;;;7.40;;
41333;SDS011;27078;46.428;6.256;2024-02-16T09:42:23;12.10;;;7.50;;
41333;SDS011;27078;46.428;6.256;2024-02-16T09:44:49;14.85;;;7.70;;
41333;SDS011;27078;46.428;6.256;2024-02-16T09:47:15;12.75;;;8.05;;
41333;SDS011;27078;46.428;6.256;2024-02-16T09:49:44;11.00;;;7.85;;
41333;SDS011;27078;46.428;6.256;2024-02-16T09:52:10;11.68;;;6.55;;
41333;SDS011;27078;46.428;6.256;2024-02-16T09:54:39;13.27;;;8.38;;
41333;SDS011;27078;46.428;6.256;2024-02-16T09:57:05;13.73;;;8.35;;
41333;SDS011;27078;46.428;6.256;2024-02-16T09:59:30;12.82;;;7.90;;
41333;SDS011;27078;46.428;6.256;2024-02-16T10:02:03;11.93;;;7.90;;
41333;SDS011;27078;46.428;6.256;2024-02-16T10:04:29;11.98;;;8.20;;
41333;SDS011;27078;46.428;6.256;2024-02-16T10:06:55;11.65;;;6.93;;
41333;SDS011;27078;46.428;6.256;2024-02-16T10:09:27;10.73;;;6.90;;
41333;SDS011;27078;46.428;6.256;2024-02-16T10:11:57;12.07;;;8.48;;
41333;SDS011;27078;46.428;6.256;2024-02-16T10:14:23;11.45;;;7.05;;
41333;SDS011;27078;46.428;6.256;2024-02-16T10:17:02;11.65;;;6.63;;
41333;SDS011;27078;46.428;6.256;2024-02-16T10:19:31;9.18;;;5.97;;
41333;SDS011;27078;46.428;6.256;2024-02-16T10:22:08;8.00;;;4.88;;
41333;SDS011;27078;46.428;6.256;2024-02-16T10:24:35;6.57;;;4.35;;
41333;SDS011;27078;46.428;6.256;2024-02-16T10:27:03;7.57;;;3.92;;
41333;SDS011;27078;46.428;6.256;2024-02-16T10:29:38;8.77;;;4.13;;
41333;SDS011;27078;46.428;6.256;2024-02-16T10:32:08;7.95;;;4.13;;
41333;SDS011;27078;46.428;6.256;2024-02-16T10:34:34;7.32;;;3.67;;
41333;SDS011;27078;46.428;6.256;2024-02-16T10:37:02;5.25;;;3.28;;
41333;SDS011;27078;46.428;6.256;2024-02-16T10:39:28;5.20;;;3.30;;
41333;SDS011;27078;46.428;6.256;2024-02-16T10:41:55;5.13;;;3.17;;
41333;SDS011;27078;46.428;6.256;2024-02-16T10:44:24;10.63;;;3.72;;
41333;SDS011;27078;46.428;6.256;2024-02-16T10:46:52;6.55;;;3.75;;
41333;SDS011;27078;46.428;6.256;2024-02-16T10:49:21;6.95;;;3.63;;
41333;SDS011;27078;46.428;6.256;2024-02-16T10:51:49;6.50;;;3.65;;
41333;SDS011;27078;46.428;6.256;2024-02-16T10:54:21;7.80;;;3.22;;
41333;SDS011;27078;46.428;6.256;2024-02-16T10:56:48;6.63;;;3.53;;
41333;SDS011;27078;46.428;6.256;2024-02-16T10:59:13;5.03;;;3.00;;
41333;SDS011;27078;46.428;6.256;2024-02-16T11:01:41;5.57;;;2.90;;
41333;SDS011;27078;46.428;6.256;2024-02-16T11:04:18;8.02;;;3.00;;
41333;SDS011;27078;46.428;6.256;2024-02-16T11:06:47;6.22;;;3.13;;
41333;SDS011;27078;46.428;6.256;2024-02-16T11:09:34;6.63;;;2.80;;
41333;SDS011;27078;46.428;6.256;2024-02-16T11:12:01;6.13;;;3.20;;
41333;SDS011;27078;46.428;6.256;2024-02-16T11:14:41;7.65;;;3.63;;
41333;SDS011;27078;46.428;6.256;2024-02-16T11:17:11;5.78;;;2.95;;
41333;SDS011;27078;46.428;6.256;2024-02-16T11:19:40;5.00;;;3.15;;
41333;SDS011;27078;46.428;6.256;2024-02-16T11:22:06;7.47;;;2.92;;
41333;SDS011;27078;46.428;6.256;2024-02-16T11:24:36;6.80;;;2.80;;
41333;SDS011;27078;46.428;6.256;2024-02-16T11:27:05;4.43;;;2.45;;
41333;SDS011;27078;46.428;6.256;2024-02-16T11:29:31;5.80;;;2.97;;
41333;SDS011;27078;46.428;6.256;2024-02-16T11:31:58;6.22;;;3.38;;
41333;SDS011;27078;46.428;6.256;2024-02-16T11:34:25;7.05;;;3.20;;
41333;SDS011;27078;46.428;6.256;2024-02-16T11:36:54;5.68;;;3.33;;
41333;SDS011;27078;46.428;6.256;2024-02-16T11:39:23;5.15;;;3.40;;
41333;SDS011;27078;46.428;6.256;2024-02-16T11:42:00;7.05;;;3.50;;
41333;SDS011;27078;46.428;6.256;2024-02-16T11:44:27;6.43;;;3.35;;
41333;SDS011;27078;46.428;6.256;2024-02-16T11:46:57;6.57;;;3.88;;
41333;SDS011;27078;46.428;6.256;2024-02-16T11:49:22;5.93;;;3.15;;
41333;SDS011;27078;46.428;6.256;2024-02-16T11:51:48;7.95;;;2.63;;
41333;SDS011;27078;46.428;6.256;2024-02-16T11:54:14;5.47;;;3.00;;
41333;SDS011;27078;46.428;6.256;2024-02-16T11:56:42;6.32;;;2.90;;
41333;SDS011;27078;46.428;6.256;2024-02-16T11:59:11;7.32;;;3.40;;
41333;SDS011;27078;46.428;6.256;2024-02-16T12:01:47;5.65;;;2.90;;
41333;SDS011;27078;46.428;6.256;2024-02-16T12:04:28;5.70;;;3.72;;
41333;SDS011;27078;46.428;6.256;2024-02-16T12:09:20;7.40;;;4.07;;
41333;SDS011;27078;46.428;6.256;2024-02-16T12:11:47;5.82;;;3.28;;
41333;SDS011;27078;46.428;6.256;2024-02-16T12:14:13;8.30;;;3.40;;
41333;SDS011;27078;46.428;6.256;2024-02-16T12:16:39;7.05;;;3.38;;
41333;SDS011;27078;46.428;6.256;2024-02-16T12:19:05;9.68;;;3.47;;
41333;SDS011;27078;46.428;6.256;2024-02-16T12:21:31;7.20;;;3.60;;
41333;SDS011;27078;46.428;6.256;2024-02-16T12:23:56;5.88;;;3.20;;
41333;SDS011;27078;46.428;6.256;2024-02-16T12:26:22;6.43;;;3.15;;
41333;SDS011;27078;46.428;6.256;2024-02-16T12:28:47;6.05;;;3.00;;
41333;SDS011;27078;46.428;6.256;2024-02-16T12:31:20;6.32;;;2.95;;
41333;SDS011;27078;46.428;6.256;2024-02-16T12:33:46;5.47;;;3.13;;
41333;SDS011;27078;46.428;6.256;2024-02-16T12:36:11;5.85;;;3.25;;
41333;SDS011;27078;46.428;6.256;2024-02-16T12:38:36;5.70;;;2.80;;
41333;SDS011;27078;46.428;6.256;2024-02-16T12:41:02;8.15;;;3.05;;
41333;SDS011;27078;46.428;6.256;2024-02-16T12:43:27;8.13;;;3.25;;
41333;SDS011;27078;46.428;6.256;2024-02-16T12:45:53;6.75;;;3.08;;
41333;SDS011;27078;46.428;6.256;2024-02-16T12:48:18;9.63;;;3.10;;
41333;SDS011;27078;46.428;6.256;2024-02-16T12:50:45;7.03;;;3.17;;
41333;SDS011;27078;46.428;6.256;2024-02-16T12:53:11;6.57;;;3.13;;
41333;SDS011;27078;46.428;6.256;2024-02-16T12:55:36;5.80;;;3.00;;
41333;SDS011;27078;46.428;6.256;2024-02-16T12:58:02;8.25;;;3.05;;
41333;SDS011;27078;46.428;6.256;2024-02-16T13:00:28;5.78;;;2.78;;
41333;SDS011;27078;46.428;6.256;2024-02-16T13:02:54;6.85;;;3.10;;
41333;SDS011;27078;46.428;6.256;2024-02-16T13:05:19;6.38;;;3.15;;
41333;SDS011;27078;46.428;6.256;2024-02-16T13:07:45;6.72;;;2.88;;
41333;SDS011;27078;46.428;6.256;2024-02-16T13:10:10;5.72;;;3.30;;
41333;SDS011;27078;46.428;6.256;2024-02-16T13:12:36;5.50;;;2.67;;
41333;SDS011;27078;46.428;6.256;2024-02-16T13:15:02;5.13;;;2.75;;
41333;SDS011;27078;46.428;6.256;2024-02-16T13:17:30;7.43;;;2.78;;
41333;SDS011;27078;46.428;6.256;2024-02-16T13:19:58;6.95;;;2.90;;
41333;SDS011;27078;46.428;6.256;2024-02-16T13:22:31;4.72;;;2.22;;
41333;SDS011;27078;46.428;6.256;2024-02-16T13:25:03;7.57;;;2.78;;
41333;SDS011;27078;46.428;6.256;2024-02-16T13:27:33;5.35;;;2.80;;
41333;SDS011;27078;46.428;6.256;2024-02-16T13:29:59;4.65;;;2.60;;
41333;SDS011;27078;46.428;6.256;2024-02-16T13:32:24;7.63;;;2.95;;
41333;SDS011;27078;46.428;6.256;2024-02-16T13:34:50;6.45;;;2.95;;
41333;SDS011;27078;46.428;6.256;2024-02-16T13:37:15;6.13;;;3.10;;
41333;SDS011;27078;46.428;6.256;2024-02-16T13:39:41;6.13;;;3.13;;
41333;SDS011;27078;46.428;6.256;2024-02-16T13:42:06;5.35;;;2.70;;
41333;SDS011;27078;46.428;6.256;2024-02-16T13:44:32;6.65;;;3.03;;
41333;SDS011;27078;46.428;6.256;2024-02-16T13:46:57;7.35;;;2.72;;
41333;SDS011;27078;46.428;6.256;2024-02-16T13:49:23;5.13;;;2.53;;
41333;SDS011;27078;46.428;6.256;2024-02-16T13:51:48;9.23;;;2.72;;
41333;SDS011;27078;46.428;6.256;2024-02-16T13:54:13;6.63;;;2.70;;
41333;SDS011;27078;46.428;6.256;2024-02-16T13:56:39;5.93;;;2.58;;
41333;SDS011;27078;46.428;6.256;2024-02-16T13:59:05;5.63;;;2.65;;
41333;SDS011;27078;46.428;6.256;2024-02-16T14:01:32;7.07;;;2.70;;
41333;SDS011;27078;46.428;6.256;2024-02-16T14:03:58;6.13;;;2.40;;
41333;SDS011;27078;46.428;6.256;2024-02-16T14:06:24;5.47;;;2.80;;
41333;SDS011;27078;46.428;6.256;2024-02-16T14:08:49;5.90;;;2.90;;
41333;SDS011;27078;46.428;6.256;2024-02-16T14:11:16;5.65;;;2.70;;
41333;SDS011;27078;46.428;6.256;2024-02-16T14:13:42;6.75;;;3.05;;
41333;SDS011;27078;46.428;6.256;2024-02-16T14:16:07;15.38;;;7.57;;
41333;SDS011;27078;46.428;6.256;2024-02-16T14:18:35;21.67;;;8.43;;
41333;SDS011;27078;46.428;6.256;2024-02-16T14:21:01;21.95;;;8.25;;
41333;SDS011;27078;46.428;6.256;2024-02-16T14:23:26;15.73;;;8.02;;
41333;SDS011;27078;46.428;6.256;2024-02-16T14:25:51;15.57;;;8.68;;
41333;SDS011;27078;46.428;6.256;2024-02-16T14:28:17;15.02;;;9.30;;
41333;SDS011;27078;46.428;6.256;2024-02-16T14:30:42;15.18;;;8.63;;
41333;SDS011;27078;46.428;6.256;2024-02-16T14:33:07;15.02;;;9.30;;
41333;SDS011;27078;46.428;6.256;2024-02-16T14:35:34;16.58;;;7.82;;